Time;durP1;ratioP1;P1;durP2;ratioP2;P2;SDS_P1;SDS_P2;PMS_P1;PMS_P2;Temp;Humidity;BMP_temperature;BMP_pressure;BME280_temperature;BME280_humidity;BME280_pressure;Samples;Min_cycle;Max_cycle;Signal;HPM_P1;HPM_P2
2023/07/29 00:00:23;;;;;;;1.10;1.00;;;22.00;99.50;;;;;;5007073;28;20367;-84
2023/07/29 00:02:48;;;;;;;1.70;1.00;;;22.00;99.50;;;;;;4985142;28;20108;-81
2023/07/29 00:05:14;;;;;;;1.00;0.80;;;21.90;99.60;;;;;;4997587;28;20096;-84
2023/07/29 00:07:40;;;;;;;0.90;0.80;;;21.90;99.60;;;;;;5001819;28;20427;-81
2023/07/29 00:10:06;;;;;;;1.07;0.90;;;21.80;99.60;;;;;;5022913;28;20033;-83
2023/07/29 00:12:32;;;;;;;0.98;0.80;;;21.80;99.70;;;;;;4989403;28;20095;-80
2023/07/29 00:14:57;;;;;;;1.17;0.73;;;21.80;99.80;;;;;;5007147;28;20543;-83
2023/07/29 00:17:23;;;;;;;0.82;0.70;;;21.80;99.90;;;;;;4988815;28;20095;-83
2023/07/29 00:19:49;;;;;;;1.00;0.70;;;21.80;99.90;;;;;;4985662;28;20052;-81
2023/07/29 00:22:15;;;;;;;0.73;0.68;;;21.80;99.90;;;;;;4995310;28;20285;-82
2023/07/29 00:24:41;;;;;;;1.40;0.80;;;21.80;99.90;;;;;;5004775;28;20208;-81
2023/07/29 00:27:07;;;;;;;1.37;0.83;;;21.80;99.90;;;;;;4991303;28;20481;-82
2023/07/29 00:29:32;;;;;;;0.80;0.60;;;21.80;99.90;;;;;;4985110;28;20168;-81
2023/07/29 00:31:58;;;;;;;1.23;0.80;;;21.80;99.90;;;;;;5003727;28;20030;-87
2023/07/29 00:34:24;;;;;;;0.80;0.80;;;21.80;99.90;;;;;;4987381;28;20385;-83
2023/07/29 00:36:50;;;;;;;1.25;0.90;;;21.70;99.90;;;;;;4995075;28;20479;-84
2023/07/29 00:39:16;;;;;;;1.30;0.80;;;21.70;99.90;;;;;;5004019;28;20053;-82
2023/07/29 00:41:42;;;;;;;0.85;0.73;;;21.70;99.90;;;;;;5019637;28;20022;-83
2023/07/29 00:44:08;;;;;;;1.07;0.80;;;21.70;99.90;;;;;;4981779;28;20052;-80
2023/07/29 00:46:36;;;;;;;1.15;0.80;;;21.70;99.90;;;;;;4997089;28;20559;-83
2023/07/29 00:49:02;;;;;;;0.80;0.80;;;21.70;99.90;;;;;;4995289;28;20510;-83
2023/07/29 00:51:28;;;;;;;1.00;0.70;;;21.70;99.90;;;;;;4994556;28;20074;-82
2023/07/29 00:53:53;;;;;;;1.27;0.80;;;23.40;99.90;;;;;;4991805;28;20612;-84
2023/07/29 00:56:19;;;;;;;1.00;0.90;;;21.70;99.90;;;;;;4997054;28;20403;-84
2023/07/29 00:58:46;;;;;;;1.33;0.80;;;21.60;99.90;;;;;;5003719;28;20060;-84
2023/07/29 01:01:12;;;;;;;1.10;0.80;;;21.50;99.90;;;;;;5001124;28;20231;-85
2023/07/29 01:06:42;;;;;;;1.00;0.90;;;21.50;99.70;;;;;;5405153;23;20276;-81
2023/07/29 01:09:31;;;;;;;1.13;0.80;;;21.50;99.20;;;;;;4957973;28;20074;-83
2023/07/29 01:12:09;;;;;;;1.10;0.80;;;21.40;98.90;;;;;;4952698;28;20433;-85
2023/07/29 01:14:59;;;;;;;1.55;0.85;;;21.40;99.60;;;;;;4959549;28;20034;-82
2023/07/29 01:17:40;;;;;;;0.70;0.70;;;18.90;99.30;;;;;;4959804;28;20097;-81
2023/07/29 01:20:09;;;;;;;1.30;0.90;;;21.30;99.20;;;;;;4931388;28;20512;-83
2023/07/29 01:22:37;;;;;;;1.73;0.90;;;21.30;99.90;;;;;;4968075;28;20108;-80
2023/07/29 01:25:03;;;;;;;1.47;0.70;;;21.30;99.90;;;;;;4951847;28;20049;-83
2023/07/29 01:27:30;;;;;;;0.77;0.60;;;21.30;99.90;;;;;;4973098;28;20022;-82
2023/07/29 01:29:57;;;;;;;0.95;0.80;;;21.20;99.90;;;;;;4968589;28;20748;-83
2023/07/29 01:32:41;;;;;;;1.40;0.90;;;21.20;99.90;;;;;;4945962;28;20023;-82
2023/07/29 01:35:21;;;;;;;1.85;0.80;;;21.20;99.90;;;;;;4964853;28;20118;-83
2023/07/29 01:37:51;;;;;;;0.77;0.70;;;21.20;99.40;;;;;;4932872;28;20491;-81
2023/07/29 01:40:18;;;;;;;0.98;0.90;;;21.10;99.80;;;;;;4963510;28;20143;-80
2023/07/29 01:42:45;;;;;;;1.20;0.93;;;21.10;99.90;;;;;;4955683;28;20052;-81
2023/07/29 01:45:11;;;;;;;0.98;0.70;;;21.10;99.90;;;;;;4965131;28;20420;-80
2023/07/29 01:47:40;;;;;;;1.23;1.00;;;21.10;99.90;;;;;;4962449;28;20022;-81
2023/07/29 01:50:07;;;;;;;1.25;0.80;;;21.00;99.90;;;;;;4966991;28;20628;-83
2023/07/29 01:52:32;;;;;;;1.25;0.80;;;21.00;99.80;;;;;;4944159;28;20478;-81
2023/07/29 01:54:58;;;;;;;1.13;0.80;;;21.00;99.90;;;;;;4973713;28;21114;-83
2023/07/29 01:57:24;;;;;;;1.23;0.85;;;21.00;99.90;;;;;;4970687;28;20315;-83
2023/07/29 01:59:50;;;;;;;1.03;0.70;;;20.90;99.90;;;;;;4959095;28;20023;-81
2023/07/29 02:02:16;;;;;;;0.93;0.70;;;20.90;99.90;;;;;;4959213;28;20627;-82
2023/07/29 02:04:42;;;;;;;1.02;0.88;;;;;;;;;;4965492;28;20034;-82
2023/07/29 02:07:08;;;;;;;1.00;0.83;;;20.90;99.70;;;;;;4951847;28;20055;-84
2023/07/29 02:09:33;;;;;;;1.35;0.90;;;20.80;99.90;;;;;;4950086;28;20030;-84
2023/07/29 02:11:59;;;;;;;1.23;1.00;;;20.80;99.90;;;;;;4949992;28;20026;-84
2023/07/29 02:14:25;;;;;;;1.07;0.80;;;20.80;99.90;;;;;;4963142;28;20528;-82
2023/07/29 02:16:51;;;;;;;1.75;0.73;;;20.80;99.90;;;;;;4944174;28;20373;-82
2023/07/29 02:19:17;;;;;;;0.93;0.80;;;20.70;99.90;;;;;;4968614;28;20031;-83
2023/07/29 02:21:43;;;;;;;1.20;0.82;;;20.70;99.90;;;;;;4963043;28;20030;-82
2023/07/29 02:24:08;;;;;;;0.90;0.80;;;20.60;99.90;;;;;;4947917;28;20039;-82
2023/07/29 02:26:34;;;;;;;0.90;0.70;;;20.60;99.90;;;;;;4965174;28;21380;-84
2023/07/29 02:29:01;;;;;;;1.00;0.90;;;20.60;99.90;;;;;;4957455;28;20023;-83
2023/07/29 02:31:27;;;;;;;0.80;0.77;;;20.50;99.90;;;;;;4943190;28;20037;-83
2023/07/29 02:33:53;;;;;;;0.97;0.87;;;20.50;99.90;;;;;;4967976;28;20126;-82
2023/07/29 02:36:18;;;;;;;0.90;0.80;;;20.50;99.90;;;;;;4949693;28;20038;-83
2023/07/29 02:38:44;;;;;;;0.95;0.80;;;20.50;99.90;;;;;;4941735;28;20030;-81
2023/07/29 02:41:12;;;;;;;1.48;0.90;;;20.50;99.90;;;;;;4951572;28;20030;-82
2023/07/29 02:43:39;;;;;;;1.00;0.90;;;20.40;99.90;;;;;;4949264;28;20019;-81
2023/07/29 02:46:04;;;;;;;1.10;0.80;;;20.40;99.90;;;;;;4969795;28;20080;-82
2023/07/29 02:48:33;;;;;;;0.93;0.80;;;20.40;99.90;;;;;;4952848;28;20034;-83
2023/07/29 02:50:59;;;;;;;0.95;0.80;;;20.40;99.90;;;;;;4950111;28;20243;-81
2023/07/29 02:53:25;;;;;;;1.03;0.70;;;20.30;99.90;;;;;;4951986;28;20065;-83
2023/07/29 02:55:51;;;;;;;1.45;0.90;;;20.30;99.90;;;;;;4962902;28;20351;-83
2023/07/29 02:58:16;;;;;;;2.45;0.90;;;20.30;99.90;;;;;;4959088;28;20495;-83
2023/07/29 03:00:43;;;;;;;2.10;0.90;;;20.30;99.90;;;;;;4948567;28;20681;-82
2023/07/29 03:03:09;;;;;;;1.10;0.95;;;20.30;99.90;;;;;;4956856;28;20816;-82
2023/07/29 03:05:35;;;;;;;0.90;0.77;;;20.20;99.90;;;;;;4959445;28;20724;-81
2023/07/29 03:08:01;;;;;;;1.27;0.85;;;20.20;99.90;;;;;;4967974;28;20643;-82
2023/07/29 03:10:27;;;;;;;1.47;0.80;;;20.20;99.90;;;;;;4930976;28;20029;-84
2023/07/29 03:12:56;;;;;;;0.95;0.80;;;20.20;99.90;;;;;;4973452;28;20030;-83
2023/07/29 03:15:25;;;;;;;1.35;0.90;;;20.20;99.90;;;;;;4946889;28;20492;-83
2023/07/29 03:17:52;;;;;;;0.95;0.90;;;20.20;99.90;;;;;;4955773;28;20753;-81
2023/07/29 03:20:19;;;;;;;0.90;0.80;;;20.20;99.90;;;;;;4946946;28;20039;-83
2023/07/29 03:22:45;;;;;;;1.63;1.00;;;20.10;99.90;;;;;;4959953;28;20037;-83
2023/07/29 03:25:11;;;;;;;0.90;0.80;;;20.10;99.90;;;;;;4970397;28;20089;-81
2023/07/29 03:27:37;;;;;;;1.10;0.90;;;20.10;99.90;;;;;;4946525;28;20058;-81
2023/07/29 03:30:03;;;;;;;1.00;0.90;;;20.10;99.90;;;;;;4955247;28;20045;-82
2023/07/29 03:32:29;;;;;;;1.15;0.80;;;20.00;99.90;;;;;;4963945;28;20022;-84
2023/07/29 03:34:55;;;;;;;1.20;0.90;;;20.00;99.90;;;;;;4961950;28;20035;-82
2023/07/29 03:37:21;;;;;;;1.10;0.80;;;20.00;99.90;;;;;;4952483;28;20022;-83
2023/07/29 03:39:48;;;;;;;1.02;0.88;;;20.00;99.90;;;;;;4972017;28;20046;-82
2023/07/29 03:42:13;;;;;;;1.23;1.00;;;20.00;99.90;;;;;;4952269;28;20058;-83
2023/07/29 03:44:39;;;;;;;1.30;0.90;;;19.90;99.90;;;;;;4965678;28;20727;-82
2023/07/29 03:47:06;;;;;;;1.58;0.70;;;19.90;99.90;;;;;;4970041;28;20027;-82
2023/07/29 03:49:32;;;;;;;1.00;0.88;;;19.10;99.90;;;;;;4946838;28;20425;-84
2023/07/29 03:51:57;;;;;;;0.70;0.67;;;19.80;99.90;;;;;;4974030;28;20018;-82
2023/07/29 03:54:23;;;;;;;1.05;0.85;;;19.90;99.90;;;;;;4975216;28;20019;-84
2023/07/29 03:56:49;;;;;;;1.10;0.90;;;19.90;99.90;;;;;;4936623;28;20418;-83
2023/07/29 03:59:17;;;;;;;1.23;0.90;;;19.80;99.90;;;;;;4954268;28;20563;-84
2023/07/29 04:01:43;;;;;;;1.47;0.90;;;19.80;99.90;;;;;;4983125;28;20026;-81
2023/07/29 04:04:09;;;;;;;1.02;0.77;;;19.80;99.90;;;;;;4975242;28;20534;-81
2023/07/29 04:06:35;;;;;;;1.38;0.70;;;19.80;99.90;;;;;;4949802;28;20483;-82
2023/07/29 04:09:01;;;;;;;1.20;0.90;;;19.80;99.90;;;;;;4952294;28;20035;-82
2023/07/29 04:11:27;;;;;;;1.00;0.90;;;19.80;99.90;;;;;;4938351;28;20037;-84
2023/07/29 04:13:53;;;;;;;0.70;0.70;;;19.80;99.90;;;;;;4955911;28;20494;-82
2023/07/29 04:16:19;;;;;;;1.70;0.90;;;19.80;99.90;;;;;;4958645;28;20363;-84
2023/07/29 04:18:45;;;;;;;1.20;0.85;;;19.80;99.90;;;;;;4952511;28;20256;-83
2023/07/29 04:21:11;;;;;;;1.83;1.00;;;19.80;99.90;;;;;;4951172;28;20022;-82
2023/07/29 04:23:37;;;;;;;1.60;0.88;;;19.80;99.90;;;;;;4945763;28;20044;-82
2023/07/29 04:26:03;;;;;;;0.80;0.73;;;19.80;99.90;;;;;;4969404;28;20550;-82
2023/07/29 04:28:28;;;;;;;0.90;0.80;;;19.80;99.90;;;;;;4949529;28;20027;-83
2023/07/29 04:30:55;;;;;;;0.85;0.77;;;19.80;99.90;;;;;;4973821;28;20042;-83
2023/07/29 04:33:20;;;;;;;1.13;0.80;;;19.80;99.90;;;;;;4955904;28;20043;-84
2023/07/29 04:35:46;;;;;;;1.30;0.90;;;19.80;99.90;;;;;;4954444;28;20109;-84
2023/07/29 04:38:12;;;;;;;1.10;0.88;;;;;;;;;;4944182;28;20023;-83
2023/07/29 04:40:41;;;;;;;1.00;0.83;;;19.80;99.90;;;;;;4944524;28;20256;-82
2023/07/29 04:43:07;;;;;;;1.10;0.90;;;19.80;99.90;;;;;;4932831;28;20389;-83
2023/07/29 04:45:33;;;;;;;1.30;0.93;;;19.80;99.90;;;;;;4938071;28;20171;-82
2023/07/29 04:47:59;;;;;;;1.30;1.00;;;19.80;99.90;;;;;;4951635;28;20058;-82
2023/07/29 04:50:25;;;;;;;1.15;0.82;;;19.80;99.90;;;;;;4970802;28;20015;-85
2023/07/29 04:52:52;;;;;;;0.80;0.80;;;19.80;99.90;;;;;;4962621;28;20030;-84
2023/07/29 04:55:18;;;;;;;1.08;0.90;;;19.80;99.90;;;;;;4967018;28;20041;-83
2023/07/29 04:57:44;;;;;;;1.13;0.90;;;19.80;99.90;;;;;;4965504;28;20042;-83
2023/07/29 05:00:10;;;;;;;1.50;0.80;;;19.80;99.90;;;;;;4948817;28;20039;-83
2023/07/29 05:02:36;;;;;;;1.48;1.10;;;19.80;99.90;;;;;;4945483;28;20187;-81
2023/07/29 05:05:03;;;;;;;1.45;0.90;;;19.80;99.90;;;;;;4970401;28;20031;-81
2023/07/29 05:07:29;;;;;;;0.90;0.70;;;20.70;99.90;;;;;;4959846;28;20293;-82
2023/07/29 05:09:55;;;;;;;2.05;0.90;;;19.80;99.90;;;;;;4967284;28;20392;-82
2023/07/29 05:12:21;;;;;;;1.05;0.88;;;19.90;99.90;;;;;;4955022;28;20433;-84
2023/07/29 05:14:46;;;;;;;1.40;0.83;;;19.90;99.90;;;;;;4948920;28;20432;-82
2023/07/29 05:17:13;;;;;;;1.75;0.88;;;19.80;99.90;;;;;;4969337;28;20543;-84
2023/07/29 05:19:39;;;;;;;1.17;0.90;;;19.90;99.90;;;;;;4965658;28;20027;-84
2023/07/29 05:22:05;;;;;;;0.82;0.82;;;19.90;99.90;;;;;;4953724;28;20027;-83
2023/07/29 05:24:31;;;;;;;1.70;0.90;;;19.90;99.90;;;;;;4930117;28;20069;-82
2023/07/29 05:26:57;;;;;;;1.55;0.90;;;19.90;99.90;;;;;;4954665;28;20018;-80
2023/07/29 05:29:23;;;;;;;1.00;0.73;;;19.90;99.90;;;;;;4929481;28;20030;-84
2023/07/29 05:31:49;;;;;;;1.47;0.87;;;20.00;99.90;;;;;;4952014;28;20029;-84
2023/07/29 05:34:15;;;;;;;1.45;0.88;;;20.00;99.90;;;;;;4957314;28;20034;-84
2023/07/29 05:36:41;;;;;;;1.42;0.90;;;20.00;99.90;;;;;;4966395;28;20081;-82
2023/07/29 05:39:07;;;;;;;1.13;0.87;;;20.00;99.90;;;;;;4946387;28;20033;-84
2023/07/29 05:41:33;;;;;;;1.13;0.80;;;20.00;99.90;;;;;;4949403;28;20140;-82
2023/07/29 05:43:59;;;;;;;1.20;1.00;;;20.00;99.90;;;;;;4970711;28;20030;-83
2023/07/29 05:46:24;;;;;;;1.13;0.80;;;20.00;99.90;;;;;;4933837;28;20034;-84
2023/07/29 05:48:50;;;;;;;1.23;0.90;;;20.00;99.90;;;;;;4969611;28;20392;-83
2023/07/29 05:51:16;;;;;;;1.00;0.80;;;20.00;99.90;;;;;;4970499;28;20030;-84
2023/07/29 05:53:42;;;;;;;1.42;0.90;;;20.00;99.90;;;;;;4938618;28;20172;-83
2023/07/29 05:56:08;;;;;;;1.23;0.90;;;20.00;99.90;;;;;;4963062;28;20031;-83
2023/07/29 05:58:34;;;;;;;1.42;0.90;;;20.00;99.90;;;;;;4950689;28;20164;-81
2023/07/29 06:00:59;;;;;;;1.60;1.00;;;20.10;99.90;;;;;;4920425;28;20030;-82
2023/07/29 06:03:25;;;;;;;1.00;0.90;;;20.10;99.90;;;;;;4956981;28;20022;-82
2023/07/29 06:05:51;;;;;;;1.27;0.93;;;20.10;99.90;;;;;;4970748;28;20039;-84
2023/07/29 06:08:17;;;;;;;1.75;0.90;;;20.20;99.90;;;;;;4972663;28;20118;-82
2023/07/29 06:10:42;;;;;;;2.65;1.00;;;20.20;99.90;;;;;;4941613;28;20037;-84
2023/07/29 06:13:08;;;;;;;1.27;1.00;;;20.30;99.90;;;;;;4962801;28;20188;-82
2023/07/29 06:15:34;;;;;;;1.33;1.00;;;20.40;99.90;;;;;;4970753;28;20521;-83
2023/07/29 06:18:00;;;;;;;1.73;1.10;;;20.40;99.90;;;;;;4927364;28;20734;-80
2023/07/29 06:20:26;;;;;;;1.45;1.02;;;20.50;99.90;;;;;;4954105;28;20061;-83
2023/07/29 06:22:52;;;;;;;1.60;0.95;;;20.60;99.90;;;;;;4966688;28;20365;-83
2023/07/29 06:25:18;;;;;;;1.37;1.00;;;20.60;99.90;;;;;;4957850;28;20034;-83
2023/07/29 06:27:44;;;;;;;0.90;0.80;;;20.70;99.90;;;;;;4949638;28;20590;-84
2023/07/29 06:30:10;;;;;;;1.17;1.00;;;20.80;99.90;;;;;;4965236;28;20555;-83
2023/07/29 06:32:35;;;;;;;1.67;1.10;;;20.80;99.90;;;;;;4945914;28;20437;-83
2023/07/29 06:35:01;;;;;;;1.02;0.90;;;20.90;99.90;;;;;;4951291;28;20236;-83
2023/07/29 06:37:27;;;;;;;1.00;0.90;;;20.90;99.90;;;;;;4963684;28;20507;-85
2023/07/29 06:39:53;;;;;;;1.10;0.90;;;21.00;99.90;;;;;;4944186;28;20026;-84
2023/07/29 06:42:19;;;;;;;1.30;1.00;;;21.00;99.90;;;;;;4954878;28;20018;-84
2023/07/29 06:44:47;;;;;;;1.17;0.90;;;21.10;99.90;;;;;;4966798;28;20160;-85
2023/07/29 06:47:13;;;;;;;1.30;0.90;;;21.10;99.90;;;;;;4946835;28;21982;-84
2023/07/29 06:49:39;;;;;;;1.42;0.90;;;21.20;99.90;;;;;;4969276;28;20042;-84
2023/07/29 06:52:05;;;;;;;0.80;0.80;;;21.30;99.90;;;;;;4956546;28;20047;-84
2023/07/29 06:54:31;;;;;;;1.00;0.80;;;21.40;99.90;;;;;;4951272;28;20026;-83
2023/07/29 06:56:57;;;;;;;1.10;1.00;;;21.50;99.90;;;;;;4955602;28;20034;-85
2023/07/29 06:59:24;;;;;;;0.75;0.70;;;21.50;99.90;;;;;;4981667;28;20026;-84
2023/07/29 07:01:50;;;;;;;1.20;0.90;;;21.60;99.90;;;;;;4948913;28;20121;-83
2023/07/29 07:04:16;;;;;;;1.43;0.90;;;21.70;99.90;;;;;;4950614;28;20044;-84
2023/07/29 07:06:42;;;;;;;0.93;0.85;;;21.80;99.90;;;;;;4967617;28;20125;-86
2023/07/29 07:09:08;;;;;;;0.90;0.80;;;21.90;99.90;;;;;;4946435;28;20367;-84
2023/07/29 07:11:34;;;;;;;1.10;0.80;;;22.00;99.90;;;;;;4946066;28;20038;-84
2023/07/29 07:14:00;;;;;;;1.23;1.00;;;22.10;99.90;;;;;;4945145;28;20023;-81
2023/07/29 07:16:26;;;;;;;1.58;0.93;;;22.30;99.90;;;;;;4963265;28;20026;-83
2023/07/29 07:18:51;;;;;;;1.73;1.10;;;22.40;99.90;;;;;;4931757;28;20636;-86
2023/07/29 07:21:17;;;;;;;1.48;0.93;;;22.50;99.90;;;;;;4972402;28;20428;-86
2023/07/29 07:23:43;;;;;;;1.57;1.00;;;22.60;99.90;;;;;;4949016;28;20429;-82
2023/07/29 07:26:09;;;;;;;1.10;0.90;;;22.70;99.90;;;;;;4939723;28;23329;-83
2023/07/29 07:28:35;;;;;;;0.73;0.73;;;22.80;99.90;;;;;;4973996;28;20512;-82
2023/07/29 07:31:00;;;;;;;1.00;0.70;;;22.80;99.90;;;;;;4946744;28;20220;-84
2023/07/29 07:33:26;;;;;;;1.02;0.80;;;22.90;99.90;;;;;;4933415;28;20026;-82
2023/07/29 07:35:52;;;;;;;1.00;0.90;;;22.90;99.90;;;;;;4962697;28;20031;-83
2023/07/29 07:38:18;;;;;;;1.83;0.80;;;22.90;99.90;;;;;;4953076;28;20034;-83
2023/07/29 07:40:55;;;;;;;1.00;0.90;;;22.90;99.90;;;;;;4936926;28;20481;-81
2023/07/29 07:43:22;;;;;;;1.20;0.90;;;22.90;99.90;;;;;;4955652;28;20255;-85
2023/07/29 07:45:47;;;;;;;0.70;0.70;;;22.80;99.90;;;;;;4954369;28;20547;-82
2023/07/29 07:48:14;;;;;;;1.98;0.82;;;22.60;99.90;;;;;;4950287;28;20022;-85
2023/07/29 07:50:40;;;;;;;1.00;0.90;;;22.70;99.90;;;;;;4949997;28;20389;-83
2023/07/29 07:53:05;;;;;;;1.73;0.80;;;22.70;99.90;;;;;;4958594;28;20034;-83
2023/07/29 07:55:31;;;;;;;1.10;0.80;;;22.60;99.90;;;;;;4948700;28;20140;-83
2023/07/29 07:57:57;;;;;;;0.60;0.60;;;22.70;99.90;;;;;;4965364;28;20049;-83
2023/07/29 08:00:23;;;;;;;1.23;0.83;;;22.70;99.90;;;;;;4969194;28;20035;-81
2023/07/29 08:02:48;;;;;;;0.85;0.80;;;22.50;99.90;;;;;;4953278;28;20142;-83
2023/07/29 08:05:14;;;;;;;1.57;0.90;;;22.60;99.90;;;;;;4934893;28;20051;-83
2023/07/29 08:07:40;;;;;;;0.80;0.77;;;22.70;99.90;;;;;;4953579;28;20129;-82
2023/07/29 08:10:07;;;;;;;1.05;0.80;;;22.80;99.90;;;;;;4960148;28;20072;-85
2023/07/29 08:12:34;;;;;;;1.25;0.70;;;22.90;99.90;;;;;;4941879;28;20120;-84
2023/07/29 08:15:00;;;;;;;0.80;0.70;;;23.00;99.90;;;;;;4960855;28;20018;-84
2023/07/29 08:17:26;;;;;;;1.10;0.80;;;23.20;99.90;;;;;;4944263;28;20028;-83
2023/07/29 08:19:51;;;;;;;1.27;0.88;;;23.30;99.90;;;;;;4934294;28;20037;-84
2023/07/29 08:22:17;;;;;;;1.37;1.00;;;23.50;99.90;;;;;;4952556;28;20848;-82
2023/07/29 08:24:43;;;;;;;0.90;0.77;;;23.60;99.90;;;;;;4973457;28;20022;-84
2023/07/29 08:27:09;;;;;;;1.23;1.00;;;23.90;99.90;;;;;;4949635;28;20608;-82
2023/07/29 08:29:36;;;;;;;1.48;1.00;;;24.20;99.90;;;;;;4964468;28;20037;-84
2023/07/29 08:32:01;;;;;;;1.23;0.90;;;24.50;99.90;;;;;;4942094;28;20034;-84
2023/07/29 08:34:27;;;;;;;1.30;1.02;;;24.90;99.90;;;;;;4952867;28;20026;-83
2023/07/29 08:36:53;;;;;;;1.10;1.00;;;25.20;99.90;;;;;;4938463;28;20507;-86
2023/07/29 08:39:19;;;;;;;1.10;1.00;;;25.70;99.90;;;;;;4945850;28;20496;-83
2023/07/29 08:41:58;;;;;;;1.00;0.90;;;26.20;99.90;;;;;;4968560;28;21795;-87
2023/07/29 08:44:26;;;;;;;2.10;0.90;;;26.60;99.90;;;;;;4942316;28;20123;-82
2023/07/29 08:46:53;;;;;;;1.00;0.90;;;26.90;99.90;;;;;;4954553;28;20049;-83
2023/07/29 08:49:20;;;;;;;1.40;1.30;;;27.20;99.90;;;;;;4952378;28;20416;-82
2023/07/29 08:51:49;;;;;;;1.17;1.05;;;27.60;99.90;;;;;;4949115;28;20384;-84
2023/07/29 08:54:15;;;;;;;1.50;1.30;;;27.90;99.90;;;;;;4959742;28;20654;-85
2023/07/29 08:56:42;;;;;;;1.17;1.02;;;28.10;99.90;;;;;;4986233;28;20026;-82
2023/07/29 08:59:10;;;;;;;1.50;0.88;;;28.40;99.90;;;;;;4946234;28;22049;-83
2023/07/29 09:01:38;;;;;;;1.02;1.00;;;28.40;99.90;;;;;;4957474;28;20522;-83
2023/07/29 09:04:04;;;;;;;1.00;0.80;;;28.50;99.90;;;;;;4971252;28;20566;-81
2023/07/29 09:06:31;;;;;;;1.40;0.95;;;28.50;99.90;;;;;;4943459;28;20504;-83
2023/07/29 09:08:59;;;;;;;1.00;1.00;;;28.50;99.90;;;;;;4953626;28;20390;-82
2023/07/29 09:11:25;;;;;;;1.13;1.02;;;28.60;99.90;;;;;;4952119;28;20608;-85
2023/07/29 09:13:52;;;;;;;1.17;1.08;;;28.70;99.90;;;;;;4954366;28;20307;-84
2023/07/29 09:16:19;;;;;;;1.20;1.10;;;28.90;99.90;;;;;;4944004;28;20504;-84
2023/07/29 09:18:50;;;;;;;2.03;1.40;;;29.10;99.90;;;;;;4965366;28;20046;-83
2023/07/29 09:21:28;;;;;;;1.58;1.20;;;29.30;99.90;;;;;;4954022;28;20025;-82
2023/07/29 09:23:55;;;;;;;1.27;1.00;;;29.50;99.90;;;;;;4934633;28;20030;-83
2023/07/29 09:26:25;;;;;;;1.58;1.40;;;29.50;99.90;;;;;;4950109;28;20010;-86
2023/07/29 09:28:56;;;;;;;1.60;1.17;;;29.50;98.30;;;;;;4949483;28;20451;-82
2023/07/29 09:31:23;;;;;;;1.52;1.30;;;29.20;97.20;;;;;;4965478;28;20061;-85
2023/07/29 09:33:49;;;;;;;1.50;1.40;;;29.00;98.60;;;;;;4949786;28;20054;-82
2023/07/29 09:36:16;;;;;;;1.85;1.20;;;28.70;99.20;;;;;;4967011;28;20035;-85
2023/07/29 09:38:44;;;;;;;1.48;1.38;;;28.60;99.80;;;;;;4940289;28;20034;-84
2023/07/29 09:41:13;;;;;;;1.93;1.17;;;28.50;99.90;;;;;;4951979;28;20045;-83
2023/07/29 09:43:39;;;;;;;1.48;1.10;;;28.50;99.80;;;;;;4955094;28;20034;-85
2023/07/29 09:46:08;;;;;;;1.73;1.30;;;28.50;99.90;;;;;;4963266;28;20037;-84
2023/07/29 09:48:35;;;;;;;1.63;1.30;;;28.40;99.90;;;;;;4966583;28;20031;-81
2023/07/29 09:51:14;;;;;;;1.70;1.20;;;28.40;99.30;;;;;;4968502;28;20113;-84
2023/07/29 09:53:48;;;;;;;1.67;1.33;;;28.20;96.50;;;;;;4933449;28;20109;-84
2023/07/29 09:56:15;;;;;;;1.65;1.40;;;28.10;99.10;;;;;;4952535;28;20665;-83
2023/07/29 09:58:45;;;;;;;1.60;1.48;;;28.00;99.90;;;;;;4950915;28;20045;-81
2023/07/29 10:01:11;;;;;;;1.75;1.48;;;28.80;99.90;;;;;;4963394;28;20129;-85
2023/07/29 10:03:37;;;;;;;1.33;1.07;;;28.00;99.90;;;;;;4965791;28;20279;-83
2023/07/29 10:06:05;;;;;;;1.40;1.20;;;27.90;99.90;;;;;;4971339;28;20042;-84
2023/07/29 10:08:32;;;;;;;1.83;1.20;;;27.90;99.90;;;;;;4945737;28;20237;-83
2023/07/29 10:11:02;;;;;;;1.60;1.13;;;27.80;99.80;;;;;;4952397;28;20025;-82
2023/07/29 10:13:28;;;;;;;1.85;1.10;;;27.70;98.50;;;;;;4941247;28;20031;-83
2023/07/29 10:15:55;;;;;;;1.20;1.10;;;27.60;99.70;;;;;;4952541;28;20376;-83
2023/07/29 10:18:23;;;;;;;1.30;1.20;;;27.50;99.50;;;;;;4933499;28;20032;-83
2023/07/29 10:20:51;;;;;;;1.50;1.30;;;27.30;98.80;;;;;;4953323;28;20130;-84
2023/07/29 10:23:19;;;;;;;1.50;1.20;;;27.10;98.70;;;;;;4952716;28;20049;-86
2023/07/29 10:26:10;;;;;;;1.30;1.20;;;27.00;99.20;;;;;;4936624;28;20665;-83
2023/07/29 10:28:40;;;;;;;1.83;1.20;;;26.90;97.10;;;;;;4967299;28;20094;-86
2023/07/29 10:31:07;;;;;;;1.15;1.05;;;26.80;99.80;;;;;;4957140;28;20491;-84
2023/07/29 10:33:34;;;;;;;1.30;1.20;;;26.90;99.90;;;;;;4949282;28;20069;-84
2023/07/29 10:36:00;;;;;;;1.50;1.20;;;27.00;99.90;;;;;;4948530;28;21183;-85
2023/07/29 10:38:27;;;;;;;1.50;1.30;;;27.10;99.90;;;;;;4969303;28;20403;-85
2023/07/29 10:40:57;;;;;;;1.52;1.40;;;27.30;99.90;;;;;;4934922;28;20791;-85
2023/07/29 10:43:33;;;;;;;1.38;1.27;;;27.60;99.90;;;;;;4968998;28;20653;-86
2023/07/29 10:46:18;;;;;;;1.30;1.10;;;27.80;99.90;;;;;;4950196;28;20515;-85
2023/07/29 10:48:56;;;;;;;1.25;1.10;;;28.00;99.90;;;;;;4951079;28;20339;-84
2023/07/29 10:51:29;;;;;;;1.30;1.20;;;28.20;99.90;;;;;;4960742;28;20031;-83
2023/07/29 10:54:01;;;;;;;1.40;1.30;;;28.20;99.90;;;;;;4951583;28;20425;-85
2023/07/29 10:56:32;;;;;;;1.30;1.20;;;28.30;99.80;;;;;;4942549;28;20105;-84
2023/07/29 10:59:16;;;;;;;1.58;1.20;;;28.40;99.90;;;;;;4957795;28;20038;-87
2023/07/29 11:01:50;;;;;;;1.30;1.10;;;28.50;98.40;;;;;;4964615;28;20038;-87
2023/07/29 11:04:23;;;;;;;1.30;1.03;;;28.50;99.90;;;;;;4941961;28;20069;-86
2023/07/29 11:07:28;;;;;;;1.20;1.00;;;28.60;99.00;;;;;;4964879;28;20174;-83
2023/07/29 11:10:02;;;;;;;1.30;1.20;;;28.60;98.10;;;;;;4933775;28;20046;-84
2023/07/29 11:12:50;;;;;;;1.20;1.10;;;28.70;98.80;;;;;;4929912;28;20217;-86
2023/07/29 11:15:26;;;;;;;1.20;1.10;;;28.60;96.60;;;;;;4948701;28;20030;-84
2023/07/29 11:17:53;;;;;;;1.53;1.10;;;28.50;97.60;;;;;;4953699;28;20516;-86
2023/07/29 11:20:21;;;;;;;1.60;1.05;;;28.30;95.80;;;;;;4939988;28;20092;-85
2023/07/29 11:22:48;;;;;;;0.85;0.85;;;28.00;96.60;;;;;;4957565;28;20083;-85
2023/07/29 11:25:15;;;;;;;1.50;1.00;;;27.70;96.70;;;;;;4961575;28;20167;-85
2023/07/29 11:27:42;;;;;;;1.05;0.90;;;27.40;96.30;;;;;;4933962;28;20030;-83
2023/07/29 11:30:10;;;;;;;1.47;1.00;;;27.10;96.50;;;;;;4961408;28;20057;-89
2023/07/29 11:32:37;;;;;;;1.27;1.10;;;26.80;96.60;;;;;;4963911;28;20038;-84
2023/07/29 11:35:05;;;;;;;2.50;1.30;;;26.50;96.30;;;;;;4939302;28;20044;-88
2023/07/29 11:37:32;;;;;;;1.88;1.15;;;26.20;96.20;;;;;;4964940;28;20093;-85
2023/07/29 11:39:58;;;;;;;2.70;1.50;;;25.90;95.80;;;;;;4960177;28;20034;-83
2023/07/29 11:42:24;;;;;;;1.77;1.30;;;25.60;95.20;;;;;;4943980;28;20029;-85
2023/07/29 11:44:50;;;;;;;1.38;1.15;;;25.30;95.80;;;;;;4924409;28;20396;-84
2023/07/29 11:47:16;;;;;;;2.13;1.40;;;24.90;97.20;;;;;;4951044;28;20022;-84
2023/07/29 11:49:42;;;;;;;3.28;1.50;;;24.50;98.30;;;;;;4939886;28;20034;-83
2023/07/29 11:52:09;;;;;;;1.63;1.40;;;24.40;99.30;;;;;;4949231;28;20026;-82
2023/07/29 11:54:37;;;;;;;2.30;1.70;;;24.20;99.90;;;;;;4953850;28;20782;-81
2023/07/29 11:57:08;;;;;;;2.25;1.80;;;24.20;99.90;;;;;;4957474;28;20504;-80
2023/07/29 11:59:37;;;;;;;2.08;1.73;;;24.20;99.90;;;;;;4959427;28;20703;-82
2023/07/29 12:02:15;;;;;;;1.80;1.60;;;24.50;99.90;;;;;;4972322;28;20030;-83
2023/07/29 12:04:42;;;;;;;2.50;1.60;;;24.70;99.90;;;;;;4927191;28;20085;-78
2023/07/29 12:07:09;;;;;;;2.00;1.60;;;25.00;99.90;;;;;;4948202;28;20381;-79
2023/07/29 12:09:36;;;;;;;1.92;1.50;;;25.30;99.90;;;;;;4944635;28;20574;-79
2023/07/29 12:12:06;;;;;;;1.50;1.38;;;25.40;99.90;;;;;;4952519;28;20046;-79
2023/07/29 12:14:32;;;;;;;1.53;1.20;;;25.40;99.90;;;;;;4926168;28;20706;-78
2023/07/29 12:17:03;;;;;;;1.25;1.15;;;25.40;99.90;;;;;;4937898;28;20061;-78
2023/07/29 12:19:33;;;;;;;1.67;1.30;;;25.40;99.90;;;;;;4941637;28;20863;-79
2023/07/29 12:21:59;;;;;;;1.25;1.15;;;25.40;99.90;;;;;;4951603;28;20045;-77
2023/07/29 12:24:26;;;;;;;1.52;1.17;;;25.40;99.90;;;;;;4961528;28;20078;-77
2023/07/29 12:26:53;;;;;;;1.60;1.30;;;25.40;99.90;;;;;;4953731;28;20030;-79
2023/07/29 12:29:19;;;;;;;1.63;1.40;;;25.40;99.90;;;;;;4914121;28;20041;-80
2023/07/29 12:31:47;;;;;;;1.30;1.20;;;25.50;99.90;;;;;;4916561;28;20522;-80
2023/07/29 12:34:20;;;;;;;1.65;1.30;;;25.70;99.90;;;;;;4957819;28;20104;-79
2023/07/29 12:36:51;;;;;;;1.50;1.40;;;26.00;99.90;;;;;;4954541;28;20038;-82
2023/07/29 12:39:26;;;;;;;1.30;0.90;;;26.30;99.90;;;;;;4946977;28;20051;-82
2023/07/29 12:41:54;;;;;;;1.33;1.23;;;26.50;99.90;;;;;;4964260;28;20031;-83
2023/07/29 12:44:20;;;;;;;1.17;1.08;;;26.50;99.90;;;;;;4927151;28;20030;-83
2023/07/29 12:46:46;;;;;;;1.27;1.17;;;26.60;99.90;;;;;;4932840;28;20038;-82
2023/07/29 12:49:12;;;;;;;1.23;1.10;;;26.60;99.90;;;;;;4944485;28;20217;-83
2023/07/29 12:51:38;;;;;;;1.20;0.97;;;26.50;99.90;;;;;;4935513;28;20113;-82